Time;durP1;ratioP1;P1;durP2;ratioP2;P2;SDS_P1;SDS_P2;PMS_P1;PMS_P2;Temp;Humidity;BMP_temperature;BMP_pressure;BME280_temperature;BME280_humidity;BME280_pressure;Samples;Min_cycle;Max_cycle;Signal;HPM_P1;HPM_P2
2023/12/01 00:01:07;;;;;;;234.55;51.72;;;;;;;0.32;100.00;99764.44;5000557;28;20144;-62
2023/12/01 00:03:32;;;;;;;156.43;44.42;;;;;;;0.32;100.00;99771.22;4999252;28;20038;-62
2023/12/01 00:05:58;;;;;;;174.65;44.25;;;;;;;0.31;100.00;99765.28;4997823;28;20129;-62
2023/12/01 00:08:23;;;;;;;163.88;43.13;;;;;;;0.31;100.00;99762.75;4999951;28;20889;-62
2023/12/01 00:10:48;;;;;;;203.80;47.40;;;;;;;0.33;100.00;99778.84;4997580;28;20862;-62
2023/12/01 00:13:14;;;;;;;170.23;46.22;;;;;;;0.34;100.00;99772.09;4997973;28;20721;-63
2023/12/01 00:15:39;;;;;;;169.40;42.88;;;;;;;0.34;100.00;99774.63;4999144;28;20038;-63
2023/12/01 00:18:04;;;;;;;148.15;39.75;;;;;;;0.30;100.00;99777.94;4999665;28;20133;-62
2023/12/01 00:20:31;;;;;;;136.05;42.45;;;;;;;0.30;100.00;99777.94;4995451;28;20081;-62
2023/12/01 00:22:56;;;;;;;166.18;42.80;;;;;;;0.27;100.00;99782.97;4999685;28;20037;-62
2023/12/01 00:25:22;;;;;;;155.43;41.80;;;;;;;0.19;100.00;99780.31;4997197;28;20877;-62
2023/12/01 00:27:47;;;;;;;172.85;39.30;;;;;;;0.09;100.00;99789.47;5000110;28;20401;-62
2023/12/01 00:30:12;;;;;;;126.75;39.67;;;;;;;-0.06;100.00;99784.09;4995637;28;20789;-62
2023/12/01 00:32:38;;;;;;;131.07;36.60;;;;;;;-0.18;100.00;99783.88;4997582;28;20050;-66
2023/12/01 00:35:03;;;;;;;110.80;35.40;;;;;;;-0.30;100.00;99782.81;4998727;28;20044;-62
2023/12/01 00:37:30;;;;;;;98.50;33.45;;;;;;;-0.38;100.00;99783.50;4998540;28;20120;-62
2023/12/01 00:39:56;;;;;;;101.25;37.67;;;;;;;-0.40;100.00;99776.69;4992441;28;20033;-62
2023/12/01 00:42:21;;;;;;;82.93;34.67;;;;;;;-0.45;100.00;99784.22;4996328;28;20413;-69
2023/12/01 00:44:47;;;;;;;82.10;32.88;;;;;;;-0.49;100.00;99787.53;5000030;28;20119;-69
2023/12/01 00:47:12;;;;;;;87.35;31.95;;;;;;;-0.53;100.00;99772.19;5000204;28;20053;-69
2023/12/01 00:49:37;;;;;;;80.68;30.95;;;;;;;-0.52;100.00;99767.16;4998372;28;20026;-69
2023/12/01 00:52:04;;;;;;;85.32;34.05;;;;;;;-0.50;100.00;99774.78;5000850;28;20038;-67
2023/12/01 00:54:29;;;;;;;72.78;31.33;;;;;;;-0.56;100.00;99779.75;4998150;28;20125;-69
2023/12/01 00:56:55;;;;;;;75.35;33.00;;;;;;;-0.60;100.00;99788.97;4999578;28;20044;-69
2023/12/01 00:59:20;;;;;;;71.93;31.15;;;;;;;-0.62;100.00;99784.69;4998765;28;20040;-69
2023/12/01 01:01:45;;;;;;;69.65;28.85;;;;;;;-0.59;100.00;99790.69;4995497;28;20072;-69
2023/12/01 01:04:11;;;;;;;64.00;29.70;;;;;;;-0.64;100.00;99791.44;4998510;28;20034;-69
2023/12/01 01:06:36;;;;;;;66.78;29.65;;;;;;;-0.67;100.00;99796.44;4996871;28;20034;-68
2023/12/01 01:09:01;;;;;;;66.63;29.65;;;;;;;-0.74;100.00;99800.53;4999600;28;20505;-70
2023/12/01 01:11:27;;;;;;;61.55;27.45;;;;;;;-0.76;100.00;99794.56;4993233;28;20591;-69
2023/12/01 01:13:53;;;;;;;66.47;28.05;;;;;;;-0.76;100.00;99801.31;4993740;28;20049;-69
2023/12/01 01:16:18;;;;;;;66.95;28.08;;;;;;;-0.71;100.00;99799.72;4997312;28;20049;-69
2023/12/01 01:18:43;;;;;;;60.60;28.02;;;;;;;-0.67;100.00;99804.91;4998405;28;20088;-69
2023/12/01 01:21:09;;;;;;;66.28;28.45;;;;;;;-0.63;100.00;99800.78;4995209;28;20652;-69
2023/12/01 01:23:35;;;;;;;63.50;26.88;;;;;;;-0.74;100.00;99807.28;4996856;28;20839;-70
2023/12/01 01:26:02;;;;;;;59.65;26.77;;;;;;;-0.73;100.00;99814.09;4993515;28;20122;-70
2023/12/01 01:28:28;;;;;;;60.85;26.35;;;;;;;-0.71;100.00;99815.81;5000075;28;20091;-70
2023/12/01 01:30:53;;;;;;;55.10;23.83;;;;;;;-0.72;100.00;99813.25;4999273;28;20803;-69
2023/12/01 01:33:18;;;;;;;52.28;24.33;;;;;;;-0.76;100.00;99822.47;4994616;28;20092;-69
2023/12/01 01:35:45;;;;;;;53.08;25.23;;;;;;;-0.72;100.00;99823.41;4998931;28;20069;-70
2023/12/01 01:38:10;;;;;;;51.28;25.02;;;;;;;-0.74;100.00;99820.81;4999750;28;20048;-69
2023/12/01 01:40:36;;;;;;;54.33;23.63;;;;;;;-0.65;100.00;99833.72;4997679;28;20042;-69
2023/12/01 01:43:01;;;;;;;49.08;23.88;;;;;;;-0.64;100.00;99832.03;4998879;28;20124;-70
2023/12/01 01:45:27;;;;;;;59.53;26.58;;;;;;;-0.65;100.00;99831.19;4996335;28;20042;-69
2023/12/01 01:47:52;;;;;;;52.45;24.10;;;;;;;-0.62;100.00;99836.31;4996614;28;20065;-69
2023/12/01 01:50:18;;;;;;;50.03;23.95;;;;;;;-0.58;100.00;99835.56;5000059;28;20507;-69
2023/12/01 01:52:44;;;;;;;51.08;23.10;;;;;;;-0.59;100.00;99836.38;4998061;28;20036;-69
2023/12/01 01:55:10;;;;;;;52.47;23.10;;;;;;;-0.58;100.00;99833.03;4999755;28;20036;-69
2023/12/01 01:57:43;;;;;;;55.58;26.38;;;;;;;-0.57;100.00;99832.19;4997541;28;20085;-69
2023/12/01 02:00:10;;;;;;;51.95;24.10;;;;;;;-0.55;100.00;99837.31;4999859;28;20376;-69
2023/12/01 02:02:36;;;;;;;48.67;23.75;;;;;;;-0.55;100.00;99839.84;5001354;28;20117;-69
2023/12/01 02:05:02;;;;;;;54.47;24.27;;;;;;;-0.55;100.00;99837.31;4996301;28;20088;-69
2023/12/01 02:07:27;;;;;;;54.00;24.20;;;;;;;-0.54;100.00;99842.41;4998517;28;20485;-69
2023/12/01 02:09:54;;;;;;;52.08;23.20;;;;;;;-0.53;100.00;99841.59;5000435;28;20767;-69
2023/12/01 02:12:19;;;;;;;55.47;24.90;;;;;;;-0.47;100.00;99839.19;5012193;28;20038;-64
2023/12/01 02:14:45;;;;;;;50.78;22.10;;;;;;;-0.48;100.00;99842.53;4997013;28;20042;-64
2023/12/01 02:17:10;;;;;;;49.90;23.25;;;;;;;-0.45;100.00;99836.66;4994763;28;20042;-63
2023/12/01 02:19:36;;;;;;;49.70;22.77;;;;;;;-0.39;100.00;99836.78;4997118;28;20375;-64
2023/12/01 02:22:01;;;;;;;47.47;24.52;;;;;;;-0.37;100.00;99837.69;4995610;28;20144;-64
2023/12/01 02:24:26;;;;;;;48.88;22.67;;;;;;;-0.39;100.00;99836.78;4992662;28;20042;-64
2023/12/01 02:26:52;;;;;;;47.05;22.63;;;;;;;-0.36;100.00;99836.84;4993950;28;20034;-63
2023/12/01 02:29:17;;;;;;;43.63;22.17;;;;;;;-0.42;100.00;99836.72;4993032;28;20044;-64
2023/12/01 02:31:42;;;;;;;50.08;23.30;;;;;;;-0.38;100.00;99835.97;4996410;28;20414;-69
2023/12/01 02:34:08;;;;;;;46.22;20.90;;;;;;;-0.38;100.00;99835.97;4991320;28;20092;-65
2023/12/01 02:36:33;;;;;;;40.40;19.13;;;;;;;-0.38;100.00;99844.44;4989942;28;20824;-66
2023/12/01 02:38:58;;;;;;;42.05;19.10;;;;;;;-0.36;100.00;99846.16;4995598;28;20042;-65
2023/12/01 02:41:24;;;;;;;43.13;21.75;;;;;;;-0.31;100.00;99847.97;4993388;28;20087;-66
2023/12/01 02:43:49;;;;;;;35.83;17.95;;;;;;;-0.39;100.00;99852.88;4990395;28;20045;-66
2023/12/01 02:46:15;;;;;;;38.50;19.25;;;;;;;-0.35;100.00;99856.34;4988830;28;20041;-68
2023/12/01 02:48:41;;;;;;;36.97;18.48;;;;;;;-0.31;100.00;99845.44;4988244;28;20274;-66
2023/12/01 02:51:07;;;;;;;43.80;19.55;;;;;;;-0.35;100.00;99851.25;4996088;28;20041;-66
2023/12/01 02:53:33;;;;;;;35.28;18.02;;;;;;;-0.37;100.00;99855.47;4989859;28;20509;-66
2023/12/01 02:55:59;;;;;;;39.55;18.63;;;;;;;-0.32;100.00;99858.06;4995126;28;20127;-67
2023/12/01 02:58:24;;;;;;;41.00;19.50;;;;;;;-0.31;100.00;99847.97;4986719;28;20037;-66
2023/12/01 03:00:50;;;;;;;37.53;18.38;;;;;;;-0.28;100.00;99848.03;4992596;28;20038;-66
2023/12/01 03:03:15;;;;;;;27.75;14.60;;;;;;;-0.27;100.00;99847.19;4997243;28;20034;-66
2023/12/01 03:05:40;;;;;;;28.25;14.93;;;;;;;-0.24;100.00;99843.84;4996106;28;20042;-65
2023/12/01 03:08:06;;;;;;;30.15;15.02;;;;;;;-0.20;100.00;99849.03;4997499;28;20053;-63
2023/12/01 03:10:31;;;;;;;28.42;13.40;;;;;;;-0.21;100.00;99848.97;4998629;28;20559;-63
2023/12/01 03:12:57;;;;;;;33.45;15.95;;;;;;;-0.22;100.00;99848.16;4992238;28;20034;-64
2023/12/01 03:15:22;;;;;;;30.67;15.57;;;;;;;-0.19;100.00;99849.88;4997753;28;20160;-63
2023/12/01 03:17:48;;;;;;;33.78;15.18;;;;;;;-0.18;100.00;99849.91;4999252;28;20049;-64
2023/12/01 03:20:14;;;;;;;29.40;15.40;;;;;;;-0.14;100.00;99850.81;4999608;28;20045;-63
2023/12/01 03:22:42;;;;;;;31.65;15.50;;;;;;;-0.17;100.00;99848.22;4993415;28;20030;-64
2023/12/01 03:25:09;;;;;;;33.33;15.60;;;;;;;-0.11;100.00;99841.59;5000493;28;20076;-64
2023/12/01 03:27:39;;;;;;;28.98;14.27;;;;;;;-0.07;100.00;99842.50;4995971;28;20081;-64
2023/12/01 03:30:13;;;;;;;29.23;13.85;;;;;;;-0.07;100.00;99853.53;4998801;28;20066;-63
2023/12/01 03:32:44;;;;;;;28.08;14.52;;;;;;;-0.05;100.00;99854.41;4995822;28;20068;-65
2023/12/01 03:35:10;;;;;;;26.08;13.38;;;;;;;-0.07;100.00;99855.22;4999222;28;20125;-63
2023/12/01 03:37:36;;;;;;;24.90;13.65;;;;;;;-0.05;100.00;99851.00;5003151;28;20032;-63
2023/12/01 03:40:01;;;;;;;30.45;15.82;;;;;;;-0.04;100.00;99852.72;4997667;28;20026;-63
2023/12/01 03:42:26;;;;;;;32.17;15.43;;;;;;;0.04;100.00;99848.63;4998444;28;20038;-63
2023/12/01 03:44:52;;;;;;;29.02;15.40;;;;;;;0.04;100.00;99856.25;5000358;28;20053;-63
2023/12/01 03:47:17;;;;;;;32.28;16.00;;;;;;;0.07;100.00;99858.84;4997537;28;20034;-63
2023/12/01 03:49:42;;;;;;;31.52;15.43;;;;;;;0.09;100.00;99858.06;4997366;28;20034;-63
2023/12/01 03:52:08;;;;;;;29.95;14.43;;;;;;;0.11;100.00;99858.09;4999036;28;20120;-64
2023/12/01 03:54:34;;;;;;;29.00;15.20;;;;;;;0.11;100.00;99855.56;4994669;28;20189;-63
2023/12/01 03:56:59;;;;;;;28.88;15.40;;;;;;;0.10;100.00;99853.84;5012671;28;20676;-64
2023/12/01 03:59:25;;;;;;;31.45;16.63;;;;;;;0.16;100.00;99862.44;4997437;28;20084;-64
2023/12/01 04:01:50;;;;;;;29.10;15.45;;;;;;;0.19;100.00;99861.63;4997544;28;20039;-64
2023/12/01 04:04:16;;;;;;;32.28;16.85;;;;;;;0.24;100.00;99867.66;4995323;28;20652;-63
2023/12/01 04:06:42;;;;;;;30.95;14.82;;;;;;;0.26;100.00;99866.00;4994868;28;20046;-63
2023/12/01 04:09:09;;;;;;;30.25;15.98;;;;;;;0.28;100.00;99873.66;4998617;28;20164;-63
2023/12/01 04:11:36;;;;;;;30.35;16.48;;;;;;;0.34;100.00;99871.22;4991038;28;20413;-63
2023/12/01 04:14:03;;;;;;;31.90;16.95;;;;;;;0.32;100.00;99861.00;4997517;28;20219;-64
2023/12/01 04:16:30;;;;;;;32.38;16.02;;;;;;;0.32;100.00;99868.63;4996001;28;20029;-64
2023/12/01 04:18:55;;;;;;;33.00;16.40;;;;;;;0.36;100.00;99874.63;4999149;28;20065;-63
2023/12/01 04:21:21;;;;;;;32.17;16.13;;;;;;;0.31;100.00;99876.25;4998548;28;20136;-62
2023/12/01 04:23:46;;;;;;;30.08;16.40;;;;;;;0.34;100.00;99879.69;4997081;28;20045;-62
2023/12/01 04:26:12;;;;;;;33.95;16.85;;;;;;;0.36;100.00;99878.03;4993299;28;20467;-62
2023/12/01 04:28:40;;;;;;;31.95;17.23;;;;;;;0.38;100.00;99884.00;4993883;28;20068;-62
2023/12/01 04:31:06;;;;;;;33.63;16.38;;;;;;;0.38;100.00;99886.53;4997913;28;20032;-63
2023/12/01 04:33:32;;;;;;;34.90;16.48;;;;;;;0.40;100.00;99889.97;4993513;28;20046;-62
2023/12/01 04:35:58;;;;;;;35.38;17.42;;;;;;;0.41;100.00;99885.75;4996593;28;20046;-62
2023/12/01 04:38:23;;;;;;;35.85;18.23;;;;;;;0.36;100.00;99887.34;4994688;28;20448;-63
2023/12/01 04:40:50;;;;;;;34.55;17.77;;;;;;;0.38;100.00;99883.16;4994799;28;20552;-63
2023/12/01 04:43:15;;;;;;;33.28;17.58;;;;;;;0.37;100.00;99886.53;4994472;28;20026;-63
2023/12/01 04:45:41;;;;;;;33.33;18.45;;;;;;;0.34;100.00;99881.38;4995630;28;20050;-63
2023/12/01 04:48:07;;;;;;;35.15;18.35;;;;;;;0.32;100.00;99878.78;4993911;28;20710;-63
2023/12/01 04:50:34;;;;;;;41.75;18.88;;;;;;;0.32;100.00;99883.88;4994818;28;20132;-63
2023/12/01 04:53:01;;;;;;;34.00;17.67;;;;;;;0.32;100.00;99883.88;4994379;28;20065;-63
2023/12/01 04:55:28;;;;;;;33.50;17.70;;;;;;;0.35;100.00;99889.03;4997349;28;20038;-63
2023/12/01 04:57:55;;;;;;;38.45;19.45;;;;;;;0.36;100.00;99900.91;4990770;28;20049;-64
2023/12/01 05:00:22;;;;;;;34.92;19.17;;;;;;;0.33;100.00;99897.44;4992475;28;20413;-63
2023/12/01 05:02:59;;;;;;;37.72;20.60;;;;;;;0.30;100.00;99898.25;4995889;28;20038;-63
2023/12/01 05:05:27;;;;;;;35.45;18.65;;;;;;;0.31;100.00;99894.91;4996433;28;20068;-63
2023/12/01 05:07:57;;;;;;;37.35;18.98;;;;;;;0.29;100.00;99905.88;4995022;28;20061;-63
2023/12/01 05:10:25;;;;;;;35.70;17.73;;;;;;;0.25;100.00;99910.03;4997493;28;20026;-63
2023/12/01 05:12:54;;;;;;;32.63;16.98;;;;;;;0.27;100.00;99910.91;4994759;28;20038;-63
2023/12/01 05:15:24;;;;;;;34.30;17.55;;;;;;;0.29;100.00;99918.56;4991430;28;20041;-62
2023/12/01 05:17:59;;;;;;;33.30;16.92;;;;;;;0.29;100.00;99908.41;4994085;28;20095;-63
2023/12/01 05:20:27;;;;;;;;;;;;;;;0.27;100.00;99915.13;4998750;28;20041;-63
2023/12/01 05:22:54;;;;;;;32.22;14.98;;;;;;;0.23;100.00;99915.91;4999490;28;19921;-63
2023/12/01 05:25:21;;;;;;;24.83;14.65;;;;;;;0.25;100.00;99915.09;5010327;28;20029;-64
2023/12/01 05:27:51;;;;;;;29.42;15.32;;;;;;;0.29;100.00;99916.84;4992938;28;20229;-63
2023/12/01 05:30:18;;;;;;;31.15;15.13;;;;;;;0.31;100.00;99919.44;4993593;28;20809;-63
2023/12/01 05:32:45;;;;;;;27.95;15.00;;;;;;;0.28;100.00;99910.09;4994762;28;20042;-63
2023/12/01 05:35:12;;;;;;;33.10;16.45;;;;;;;0.25;100.00;99916.78;4996270;28;20045;-63
2023/12/01 05:37:49;;;;;;;34.38;15.98;;;;;;;0.25;100.00;99926.94;4993181;28;20037;-63
2023/12/01 05:40:25;;;;;;;33.95;17.30;;;;;;;0.27;100.00;99931.22;4998759;28;20026;-62
2023/12/01 05:42:52;;;;;;;35.15;16.98;;;;;;;0.27;100.00;99936.31;4994180;28;20034;-63
2023/12/01 05:45:22;;;;;;;33.10;16.60;;;;;;;0.28;100.00;99938.03;4989285;28;20042;-62
2023/12/01 05:47:52;;;;;;;30.98;16.70;;;;;;;0.25;100.00;99939.66;4989226;28;20042;-63
2023/12/01 05:50:28;;;;;;;32.92;16.55;;;;;;;0.26;100.00;99942.25;4991734;28;20113;-63
2023/12/01 06:03:30;;;;;;;32.20;16.42;;;;;;;0.32;100.00;99946.59;5041871;27;20419;-64
2023/12/01 06:05:55;;;;;;;34.58;17.90;;;;;;;0.34;100.00;99953.41;5003263;28;20045;-64
2023/12/01 06:08:20;;;;;;;30.65;17.42;;;;;;;0.33;100.00;99955.91;5038589;28;20034;-64
2023/12/01 06:10:46;;;;;;;31.52;17.23;;;;;;;0.30;100.00;99948.22;5022978;28;20033;-64
2023/12/01 06:13:11;;;;;;;32.75;17.05;;;;;;;0.31;100.00;99958.44;5021071;28;20542;-65
2023/12/01 06:15:37;;;;;;;35.55;17.27;;;;;;;0.33;100.00;99958.44;5020634;28;20084;-64
2023/12/01 06:18:02;;;;;;;30.08;16.70;;;;;;;0.31;100.00;99968.59;5004433;28;20156;-65
2023/12/01 06:20:30;;;;;;;29.85;16.15;;;;;;;0.33;100.00;99964.41;5021843;28;20037;-64
2023/12/01 06:22:57;;;;;;;31.98;17.27;;;;;;;0.35;100.00;99974.59;5013437;28;20046;-65
2023/12/01 06:25:27;;;;;;;33.17;15.73;;;;;;;0.37;100.00;99975.47;5003367;28;20511;-65
2023/12/01 06:27:56;;;;;;;34.10;17.67;;;;;;;0.35;100.00;99974.59;5054056;28;20090;-65
2023/12/01 06:30:23;;;;;;;31.80;16.52;;;;;;;0.36;100.00;99982.25;5051987;28;20041;-65
2023/12/01 06:32:50;;;;;;;39.63;19.02;;;;;;;0.40;100.00;99981.50;5033195;28;20030;-64
2023/12/01 06:35:17;;;;;;;31.13;16.25;;;;;;;0.39;100.00;99984.84;5023248;28;20034;-65
2023/12/01 06:37:44;;;;;;;36.30;17.50;;;;;;;0.41;100.00;99987.44;5017788;28;20029;-65
2023/12/01 06:40:11;;;;;;;31.85;17.33;;;;;;;0.38;100.00;99990.75;5001051;28;20030;-65
2023/12/01 06:42:42;;;;;;;31.65;16.83;;;;;;;0.37;100.00;99983.09;5017302;28;20034;-65
2023/12/01 06:45:15;;;;;;;30.38;15.02;;;;;;;0.40;100.00;99983.16;5013316;28;20069;-65
2023/12/01 06:47:43;;;;;;;28.02;14.65;;;;;;;0.37;100.00;99988.19;5021584;28;20038;-64
2023/12/01 06:50:14;;;;;;;26.35;14.88;;;;;;;0.35;100.00;99982.22;5033123;28;20603;-64
2023/12/01 06:52:40;;;;;;;22.25;12.30;;;;;;;0.32;100.00;99980.47;5011786;28;20048;-64
2023/12/01 06:55:07;;;;;;;25.27;12.80;;;;;;;0.33;100.00;99986.41;5049579;28;20495;-65
2023/12/01 06:57:36;;;;;;;23.90;12.43;;;;;;;0.31;100.00;99988.06;5021582;28;20551;-64
2023/12/01 07:00:07;;;;;;;27.98;13.80;;;;;;;0.29;100.00;99985.47;5023214;28;20034;-65
2023/12/01 07:02:34;;;;;;;24.25;12.38;;;;;;;0.32;100.00;99987.25;5045622;28;20061;-65
2023/12/01 07:04:59;;;;;;;24.92;12.82;;;;;;;0.30;100.00;99988.88;5007087;28;20109;-65
2023/12/01 07:07:25;;;;;;;25.23;13.15;;;;;;;0.29;100.00;99992.28;5011432;28;20033;-65
2023/12/01 07:09:50;;;;;;;24.17;11.85;;;;;;;0.29;100.00;99992.28;4989939;28;20470;-65
2023/12/01 07:12:16;;;;;;;31.00;14.85;;;;;;;0.32;100.00;99994.88;4989965;28;20040;-65
2023/12/01 07:14:41;;;;;;;22.70;12.30;;;;;;;0.33;100.00;99999.13;5037556;28;20478;-65
2023/12/01 07:17:07;;;;;;;22.05;11.55;;;;;;;0.32;100.00;100005.03;5039411;28;20568;-65
2023/12/01 07:19:34;;;;;;;25.33;12.18;;;;;;;0.33;100.00;100010.13;5001216;28;20412;-65
2023/12/01 07:22:00;;;;;;;20.50;9.93;;;;;;;0.30;100.00;100006.66;5000054;28;20113;-65
2023/12/01 07:24:25;;;;;;;23.65;11.80;;;;;;;0.29;100.00;99998.19;4998956;28;20520;-65
2023/12/01 07:26:52;;;;;;;24.45;10.95;;;;;;;0.29;100.00;100003.28;5038999;28;20564;-65
2023/12/01 07:29:18;;;;;;;22.83;11.77;;;;;;;0.29;100.00;99999.91;5039845;28;20038;-65
2023/12/01 07:31:44;;;;;;;21.75;10.85;;;;;;;0.31;100.00;100003.31;5007488;28;20021;-65
2023/12/01 07:34:13;;;;;;;20.52;11.52;;;;;;;0.36;100.00;100014.44;4990443;28;20046;-65
2023/12/01 07:36:39;;;;;;;20.45;10.75;;;;;;;0.32;100.00;100013.50;5034804;28;20038;-65
2023/12/01 07:39:05;;;;;;;22.42;10.35;;;;;;;0.34;100.00;100021.16;5033925;28;20088;-65
2023/12/01 07:41:33;;;;;;;23.13;10.55;;;;;;;0.37;100.00;100021.22;5037833;28;20441;-65
2023/12/01 07:43:59;;;;;;;17.25;10.15;;;;;;;0.35;100.00;100020.34;4999012;28;20429;-65
2023/12/01 07:46:25;;;;;;;18.65;9.80;;;;;;;0.36;100.00;100015.28;5005163;28;20053;-65
2023/12/01 07:48:50;;;;;;;18.58;10.30;;;;;;;0.36;100.00;100011.88;5021045;28;20038;-65
2023/12/01 07:51:16;;;;;;;18.55;9.85;;;;;;;0.34;100.00;100018.63;4998232;28;20038;-65
2023/12/01 07:53:45;;;;;;;18.40;10.45;;;;;;;0.31;100.00;100029.59;5034936;28;20049;-65
2023/12/01 07:56:21;;;;;;;18.48;9.18;;;;;;;0.27;100.00;100026.94;5006136;28;20511;-65
2023/12/01 07:58:48;;;;;;;19.20;10.73;;;;;;;0.25;100.00;100028.59;5000295;28;20033;-65
2023/12/01 08:01:14;;;;;;;19.75;10.98;;;;;;;0.23;100.00;100026.03;5039895;28;20501;-65
2023/12/01 08:03:42;;;;;;;18.92;10.05;;;;;;;0.20;100.00;100030.19;4997768;28;20042;-65
2023/12/01 08:06:08;;;;;;;22.30;11.48;;;;;;;0.20;100.00;100040.38;5004261;28;20037;-65
2023/12/01 08:08:33;;;;;;;18.13;9.35;;;;;;;0.21;100.00;100049.69;5021885;28;20030;-65
2023/12/01 08:10:59;;;;;;;19.80;10.52;;;;;;;0.18;100.00;100045.41;5000696;28;20085;-65
2023/12/01 08:13:24;;;;;;;20.48;10.93;;;;;;;0.23;100.00;100045.50;4984685;28;20057;-65
2023/12/01 08:15:50;;;;;;;20.95;11.20;;;;;;;0.23;100.00;100058.22;5005419;28;20038;-65
2023/12/01 08:18:15;;;;;;;17.95;9.68;;;;;;;0.20;100.00;100058.16;4983826;28;20038;-65
2023/12/01 08:20:41;;;;;;;18.13;9.63;;;;;;;0.24;100.00;100062.44;4997080;28;20041;-65
2023/12/01 08:23:06;;;;;;;19.83;9.93;;;;;;;0.25;100.00;100054.00;5034790;28;20056;-65
2023/12/01 08:25:32;;;;;;;17.80;8.75;;;;;;;0.24;100.00;100054.81;5003190;28;20037;-65
2023/12/01 08:27:57;;;;;;;16.73;9.23;;;;;;;0.24;100.00;100049.75;5005395;28;20060;-65
2023/12/01 08:30:23;;;;;;;14.90;9.13;;;;;;;0.29;100.00;100056.63;5006621;28;20448;-65
2023/12/01 08:32:48;;;;;;;17.27;10.15;;;;;;;0.30;100.00;100054.97;5024776;28;20096;-65
2023/12/01 08:35:15;;;;;;;17.25;9.27;;;;;;;0.29;100.00;100059.19;5035530;28;20052;-65
2023/12/01 08:37:40;;;;;;;16.45;8.85;;;;;;;0.29;100.00;100063.44;5011161;28;20123;-65
2023/12/01 08:40:11;;;;;;;17.63;10.02;;;;;;;0.34;100.00;100062.69;5042626;28;20436;-65
2023/12/01 08:42:38;;;;;;;16.92;8.88;;;;;;;0.27;99.74;100048.13;5003562;28;20061;-65
2023/12/01 08:45:04;;;;;;;15.13;8.98;;;;;;;0.18;100.00;100053.03;5014238;28;20037;-66
2023/12/01 08:47:30;;;;;;;16.67;8.80;;;;;;;0.21;100.00;100065.78;4989298;28;20061;-65
2023/12/01 08:49:56;;;;;;;16.85;8.70;;;;;;;0.33;100.00;100075.34;5008266;28;20045;-66
2023/12/01 08:52:22;;;;;;;19.80;8.98;;;;;;;0.33;100.00;100058.44;5029836;28;20027;-65
2023/12/01 08:54:47;;;;;;;15.95;8.65;;;;;;;0.35;99.83;100064.41;5025453;28;20057;-66
2023/12/01 08:57:13;;;;;;;18.55;9.57;;;;;;;0.41;98.99;100061.16;5056112;28;20037;-66
2023/12/01 08:59:38;;;;;;;18.90;9.45;;;;;;;0.44;98.47;100056.13;5036541;28;20033;-65
2023/12/01 09:02:04;;;;;;;15.15;8.48;;;;;;;0.47;98.24;100058.72;5021977;28;20045;-65
2023/12/01 09:04:29;;;;;;;16.90;8.70;;;;;;;0.57;98.60;100063.16;5051667;28;20036;-66
2023/12/01 09:06:56;;;;;;;13.77;8.20;;;;;;;0.55;97.55;100040.25;5037582;28;20029;-65
2023/12/01 09:09:21;;;;;;;15.77;8.48;;;;;;;0.61;97.33;100048.00;5038150;28;20036;-66
2023/12/01 09:11:47;;;;;;;22.23;9.18;;;;;;;0.72;97.82;100060.94;5040703;28;20022;-66
2023/12/01 09:14:12;;;;;;;19.63;8.75;;;;;;;0.78;97.23;100055.97;5055460;28;20053;-65
2023/12/01 09:16:37;;;;;;;14.50;7.82;;;;;;;0.86;97.19;100056.94;5026245;28;20087;-66
2023/12/01 09:19:03;;;;;;;13.80;7.95;;;;;;;0.90;96.53;100056.19;5028064;28;20025;-65
2023/12/01 09:21:28;;;;;;;16.05;9.05;;;;;;;0.89;95.49;100056.16;5052570;28;20032;-65
2023/12/01 09:23:54;;;;;;;13.20;7.38;;;;;;;0.84;95.76;100058.63;5021975;28;20045;-66
2023/12/01 09:26:20;;;;;;;14.85;7.50;;;;;;;0.80;94.97;100061.06;5056634;28;20121;-65
2023/12/01 09:28:48;;;;;;;19.40;9.85;;;;;;;0.71;94.09;100060.06;5048970;28;20037;-65
2023/12/01 09:31:14;;;;;;;17.90;8.50;;;;;;;0.80;94.85;100071.22;5026985;28;20025;-65
2023/12/01 09:33:39;;;;;;;13.20;7.75;;;;;;;0.85;95.82;100077.28;5024947;28;20543;-65
2023/12/01 09:36:05;;;;;;;14.25;7.35;;;;;;;0.82;94.82;100061.97;5055741;28;20029;-66
2023/12/01 09:38:31;;;;;;;14.45;7.55;;;;;;;0.88;95.51;100079.91;5023013;28;20048;-66
2023/12/01 09:40:57;;;;;;;13.30;7.53;;;;;;;0.89;94.95;100066.31;5024334;28;20563;-65
2023/12/01 09:43:23;;;;;;;19.15;7.93;;;;;;;0.89;94.38;100059.56;5024630;28;20510;-66
2023/12/01 09:45:50;;;;;;;17.42;7.90;;;;;;;0.92;93.97;100054.53;5037709;28;20034;-66
2023/12/01 09:48:18;;;;;;;13.93;7.47;;;;;;;1.03;94.55;100067.47;5025820;28;20037;-65
2023/12/01 09:50:44;;;;;;;17.27;8.43;;;;;;;1.11;93.69;100064.22;5021581;28;20026;-65
2023/12/01 09:53:11;;;;;;;12.90;7.88;;;;;;;1.20;92.64;100051.66;5056091;28;20034;-65
2023/12/01 09:55:36;;;;;;;13.57;7.55;;;;;;;1.19;92.17;100051.63;5019593;28;20029;-66
2023/12/01 09:58:03;;;;;;;13.13;7.15;;;;;;;1.21;91.02;100033.00;5057816;28;20500;-65
2023/12/01 10:00:29;;;;;;;15.52;7.45;;;;;;;1.23;91.71;100040.66;5025367;28;20029;-66
2023/12/01 10:02:54;;;;;;;14.00;6.90;;;;;;;1.08;90.82;100033.63;5021201;28;20042;-66
2023/12/01 10:05:20;;;;;;;9.38;5.78;;;;;;;1.06;90.18;100034.44;5056865;28;20030;-66
2023/12/01 10:07:48;;;;;;;10.60;5.80;;;;;;;1.08;90.15;100042.94;5026066;28;20025;-66
2023/12/01 10:10:20;;;;;;;9.73;5.70;;;;;;;1.14;89.32;100038.81;5026065;28;20033;-66
2023/12/01 10:13:04;;;;;;;8.57;5.32;;;;;;;1.11;90.39;100058.28;5025806;28;20030;-66
2023/12/01 10:15:31;;;;;;;13.05;4.78;;;;;;;1.16;90.31;100052.44;5057557;28;20045;-65
2023/12/01 10:18:19;;;;;;;10.05;5.82;;;;;;;1.24;91.49;100062.75;5004578;28;20048;-66
2023/12/01 10:20:58;;;;;;;8.07;4.57;;;;;;;1.20;90.05;100031.31;5023489;28;20061;-66
2023/12/01 10:23:24;;;;;;;7.32;5.05;;;;;;;1.15;89.32;100034.59;5034270;28;20112;-66
2023/12/01 10:25:51;;;;;;;7.85;4.47;;;;;;;1.06;87.84;100021.72;5021748;28;20050;-65
2023/12/01 10:28:20;;;;;;;8.77;5.07;;;;;;;1.10;87.77;100024.31;5053717;28;20037;-65
2023/12/01 10:30:54;;;;;;;9.18;4.65;;;;;;;1.05;87.93;100025.94;5019165;28;20038;-65
2023/12/01 10:33:24;;;;;;;11.50;6.05;;;;;;;1.15;88.79;100034.59;5016823;28;20045;-65
2023/12/01 10:36:07;;;;;;;8.82;5.72;;;;;;;1.26;89.14;100049.22;5035361;28;20071;-65
2023/12/01 10:38:33;;;;;;;9.43;5.13;;;;;;;1.35;88.98;100056.16;5040312;28;20390;-65
2023/12/01 10:41:00;;;;;;;11.98;6.30;;;;;;;1.38;88.49;100032.44;5042978;28;20040;-64
2023/12/01 10:43:30;;;;;;;14.35;5.90;;;;;;;1.43;88.78;100036.75;5024439;28;20037;-65
2023/12/01 10:46:00;;;;;;;12.50;6.35;;;;;;;1.35;88.56;100022.19;5061676;28;20132;-65
2023/12/01 10:48:29;;;;;;;32.65;14.93;;;;;;;1.38;87.29;100002.75;5008449;28;20037;-65
2023/12/01 10:50:54;;;;;;;20.95;8.02;;;;;;;1.35;87.89;100012.88;5022954;28;20124;-65
2023/12/01 10:53:24;;;;;;;19.13;7.90;;;;;;;1.26;88.36;100018.69;5060302;28;20125;-65
2023/12/01 10:55:50;;;;;;;11.60;6.05;;;;;;;1.24;86.46;99984.69;5056112;28;20072;-65
2023/12/01 10:58:25;;;;;;;15.80;7.88;;;;;;;1.22;86.56;99978.72;5019502;28;20044;-66
2023/12/01 11:00:52;;;;;;;9.52;5.35;;;;;;;1.12;87.77;100007.38;5060336;28;20530;-65
2023/12/01 11:03:20;;;;;;;7.18;4.57;;;;;;;1.12;87.46;99998.91;5020878;28;20030;-65
2023/12/01 11:05:48;;;;;;;11.73;6.45;;;;;;;1.12;88.39;100014.19;5026737;28;20503;-66
2023/12/01 11:08:27;;;;;;;10.63;6.03;;;;;;;1.12;88.00;100002.28;5028626;28;20045;-66
2023/12/01 11:10:58;;;;;;;12.75;6.85;;;;;;;1.11;88.69;100020.09;5023506;28;20045;-65
2023/12/01 11:13:47;;;;;;;9.60;5.75;;;;;;;1.08;89.10;100037.84;5015931;28;20069;-65
2023/12/01 11:16:14;;;;;;;12.70;5.18;;;;;;;1.08;89.85;100046.34;5022135;28;20065;-65
2023/12/01 11:18:43;;;;;;;10.10;5.43;;;;;;;1.10;89.96;100049.78;5024563;28;20034;-65
2023/12/01 11:21:09;;;;;;;11.18;5.40;;;;;;;1.09;89.68;100042.13;5028483;28;20428;-66
2023/12/01 11:23:35;;;;;;;9.15;5.25;;;;;;;1.02;89.04;100030.13;5028728;28;20493;-66
2023/12/01 11:26:07;;;;;;;10.52;5.80;;;;;;;1.06;88.76;100031.91;5018865;28;20049;-65